Time;durP1;ratioP1;P1;durP2;ratioP2;P2;SDS_P1;SDS_P2;PMS_P1;PMS_P2;Temp;Humidity;BMP_temperature;BMP_pressure;BME280_temperature;BME280_humidity;BME280_pressure;Samples;Min_cycle;Max_cycle;Signal;HPM_P1;HPM_P2
2021/11/01 05:01:06;;;;;;;7.53;2.30;;;12.60;99.90;;;;;;5599139;23;20502;-70
2021/11/01 05:03:37;;;;;;;10.30;3.40;;;12.60;99.90;;;;;;4933041;29;20214;-71
2021/11/01 05:06:04;;;;;;;5.20;2.90;;;12.50;99.90;;;;;;4932193;29;20588;-71
2021/11/01 05:08:39;;;;;;;15.33;2.97;;;12.50;99.90;;;;;;4932938;29;20548;-71
2021/11/01 05:11:13;;;;;;;14.87;3.60;;;12.50;99.90;;;;;;4917077;29;21075;-71
2021/11/01 05:13:40;;;;;;;2.63;2.40;;;12.50;99.90;;;;;;4914511;29;20470;-71
2021/11/01 05:16:12;;;;;;;5.85;2.95;;;12.50;99.90;;;;;;4950800;23;20511;-71
2021/11/01 05:18:44;;;;;;;10.70;3.90;;;12.50;99.90;;;;;;4952356;28;20224;-71
2021/11/01 05:21:26;;;;;;;6.90;3.05;;;12.50;99.90;;;;;;4952799;28;20461;-71
2021/11/01 05:23:57;;;;;;;5.20;3.20;;;12.50;99.90;;;;;;4951691;28;20703;-72
2021/11/01 05:26:34;;;;;;;8.68;3.20;;;12.50;99.90;;;;;;4943605;28;20222;-71
2021/11/01 05:29:05;;;;;;;10.77;3.40;;;12.50;99.90;;;;;;4932332;29;20258;-72
2021/11/01 05:31:42;;;;;;;6.67;3.30;;;12.50;99.90;;;;;;4926659;29;20565;-71
2021/11/01 05:34:11;;;;;;;10.95;3.13;;;12.40;99.90;;;;;;4929498;29;20958;-72
2021/11/01 05:36:38;;;;;;;9.03;2.80;;;12.40;99.90;;;;;;4924317;29;20570;-71
2021/11/01 05:39:05;;;;;;;6.38;3.05;;;12.40;99.90;;;;;;4921344;29;20623;-71
2021/11/01 05:41:32;;;;;;;6.43;3.70;;;12.40;99.90;;;;;;4933108;29;20202;-71
2021/11/01 05:43:58;;;;;;;6.10;3.20;;;12.40;99.90;;;;;;4932190;29;20202;-72
2021/11/01 05:46:33;;;;;;;7.28;4.35;;;12.40;99.90;;;;;;4933529;29;20850;-71
2021/11/01 05:49:03;;;;;;;6.40;3.15;;;12.40;99.90;;;;;;4932019;29;20557;-71
2021/11/01 05:51:30;;;;;;;10.82;3.97;;;12.40;99.90;;;;;;4933571;29;20218;-71
2021/11/01 05:54:00;;;;;;;6.13;4.18;;;12.40;99.90;;;;;;4932680;29;20726;-71
2021/11/01 05:56:34;;;;;;;9.00;3.45;;;12.40;99.90;;;;;;4937140;29;20314;-71
2021/11/01 06:02:10;;;;;;;7.15;3.03;;;12.30;99.90;;;;;;4913678;29;20206;-71
2021/11/01 06:04:56;;;;;;;12.23;3.40;;;12.30;99.90;;;;;;4931882;29;20647;-72
2021/11/01 06:07:29;;;;;;;3.67;3.10;;;12.30;99.90;;;;;;4936599;29;20241;-71
2021/11/01 06:10:02;;;;;;;11.57;3.65;;;12.30;99.90;;;;;;4931556;29;20214;-71
2021/11/01 06:15:14;;;;;;;10.90;3.72;;;12.30;99.90;;;;;;4926854;29;20238;-72
2021/11/01 06:17:42;;;;;;;7.60;4.28;;;12.30;99.90;;;;;;4920662;29;20235;-71
2021/11/01 06:20:13;;;;;;;13.70;3.87;;;12.30;99.90;;;;;;4925972;29;20214;-70
2021/11/01 06:22:40;;;;;;;7.05;3.83;;;12.30;99.90;;;;;;4932600;29;20465;-71
2021/11/01 06:25:09;;;;;;;8.82;3.33;;;12.30;99.90;;;;;;4936452;29;20547;-71
2021/11/01 06:27:37;;;;;;;6.30;3.20;;;12.30;99.90;;;;;;4935783;29;20244;-72
2021/11/01 06:30:13;;;;;;;12.20;4.53;;;12.30;99.90;;;;;;4936415;29;20699;-71
2021/11/01 06:32:44;;;;;;;3.90;3.00;;;12.20;99.90;;;;;;4936337;29;20214;-71
2021/11/01 06:40:59;;;;;;;7.30;3.92;;;12.20;99.90;;;;;;4927207;29;20283;-71
2021/11/01 06:43:28;;;;;;;7.25;3.72;;;12.20;99.90;;;;;;4919486;29;20290;-70
2021/11/01 07:16:33;;;;;;;8.03;3.50;;;12.30;99.90;;;;;;4916703;29;20241;-70
2021/11/01 07:19:03;;;;;;;7.75;3.33;;;12.30;99.90;;;;;;4923132;29;20516;-71
2021/11/01 07:21:54;;;;;;;10.43;2.95;;;12.20;99.90;;;;;;4934078;29;20234;-70
2021/11/01 07:24:49;;;;;;;5.68;3.10;;;12.20;99.90;;;;;;4939395;29;20217;-72
2021/11/01 07:38:49;;;;;;;3.78;2.67;;;12.20;99.90;;;;;;4934332;29;20208;-70
2021/11/01 08:25:24;;;;;;;8.05;3.45;;;12.40;99.90;;;;;;4921159;29;20663;-70
2021/11/01 08:28:21;;;;;;;6.77;3.50;;;12.50;99.90;;;;;;4923388;29;20643;-71
2021/11/01 08:39:35;;;;;;;3.57;2.87;;;12.60;99.90;;;;;;4920123;29;20461;-71
2021/11/01 08:42:25;;;;;;;7.00;2.70;;;12.60;99.90;;;;;;4933700;29;20909;-71
2021/11/01 08:47:50;;;;;;;16.70;3.47;;;12.70;99.90;;;;;;4933727;29;20492;-71
2021/11/01 08:50:35;;;;;;;6.77;3.20;;;12.70;99.90;;;;;;4929600;29;20474;-72
2021/11/01 09:01:42;;;;;;;10.10;2.80;;;12.90;99.90;;;;;;4933638;29;20457;-71
2021/11/01 09:04:16;;;;;;;9.00;2.57;;;13.00;99.90;;;;;;4932568;29;20461;-71
2021/11/01 09:06:55;;;;;;;2.70;2.10;;;13.20;99.90;;;;;;4922891;29;20489;-71
2021/11/01 09:20:24;;;;;;;4.03;2.17;;;13.10;99.90;;;;;;4930534;29;20525;-71
2021/11/01 09:25:57;;;;;;;2.50;1.97;;;13.10;99.90;;;;;;4933312;29;20464;-71
2021/11/01 09:28:31;;;;;;;4.70;1.60;;;13.20;99.90;;;;;;4933167;29;20564;-71
2021/11/01 09:36:45;;;;;;;2.20;1.90;;;13.40;99.90;;;;;;4924705;29;21034;-72
2021/11/01 09:39:31;;;;;;;3.73;2.37;;;13.40;99.90;;;;;;4923306;29;20461;-72
2021/11/01 09:42:00;;;;;;;2.70;1.97;;;13.40;99.90;;;;;;4927401;29;20970;-72
2021/11/01 09:44:28;;;;;;;2.50;1.50;;;13.40;99.90;;;;;;4936753;29;20457;-71
2021/11/01 09:46:57;;;;;;;5.40;1.77;;;13.50;99.90;;;;;;4936304;29;20501;-71
2021/11/01 09:49:24;;;;;;;1.27;1.27;;;13.50;99.90;;;;;;4925888;29;20563;-72
2021/11/01 09:51:54;;;;;;;5.40;1.90;;;13.50;99.90;;;;;;4927581;29;20469;-73
2021/11/01 09:54:23;;;;;;;6.07;1.57;;;13.50;99.90;;;;;;4930830;29;20473;-72
2021/11/01 09:56:58;;;;;;;6.80;1.63;;;13.60;99.90;;;;;;4936671;29;20528;-73
2021/11/01 09:59:27;;;;;;;1.83;1.43;;;13.60;99.90;;;;;;4936683;29;20516;-72
2021/11/01 10:01:56;;;;;;;1.67;1.40;;;13.60;99.90;;;;;;4936691;29;20469;-72
2021/11/01 10:04:25;;;;;;;4.30;2.50;;;13.80;99.90;;;;;;4936501;29;20501;-72
2021/11/01 10:07:09;;;;;;;4.57;1.40;;;13.80;99.90;;;;;;4935201;29;20504;-73
2021/11/01 10:09:37;;;;;;;6.90;2.03;;;13.90;99.90;;;;;;4936533;29;20584;-73
2021/11/01 10:12:05;;;;;;;1.83;1.63;;;13.90;99.90;;;;;;4935020;29;20962;-72
2021/11/01 10:14:31;;;;;;;3.20;1.87;;;14.00;99.90;;;;;;4936781;29;20472;-72
2021/11/01 10:19:44;;;;;;;2.37;1.93;;;14.20;99.90;;;;;;4935006;29;20536;-72
2021/11/01 10:22:20;;;;;;;2.60;1.70;;;14.20;99.90;;;;;;4926392;29;20470;-71
2021/11/01 10:24:53;;;;;;;4.07;1.60;;;14.20;99.90;;;;;;4931419;29;20468;-70
2021/11/01 10:27:29;;;;;;;7.13;1.57;;;14.20;99.90;;;;;;4936096;29;20486;-71
2021/11/01 10:29:58;;;;;;;1.50;1.40;;;14.20;99.90;;;;;;4936530;29;20469;-70
2021/11/01 10:32:37;;;;;;;3.73;1.63;;;14.30;99.90;;;;;;4936098;29;20468;-70
2021/11/01 10:35:16;;;;;;;2.63;2.03;;;14.40;99.90;;;;;;4919624;29;20525;-70
2021/11/01 10:38:06;;;;;;;3.73;1.70;;;14.40;99.90;;;;;;4935620;29;20488;-70
2021/11/01 10:40:36;;;;;;;2.83;1.47;;;14.50;99.90;;;;;;4935824;29;20544;-69
2021/11/01 10:43:19;;;;;;;4.27;1.40;;;14.50;99.90;;;;;;4932877;29;20556;-70
2021/11/01 10:57:22;;;;;;;1.90;1.53;;;14.70;99.90;;;;;;4918317;29;20572;-71
2021/11/01 11:11:06;;;;;;;1.90;1.10;;;14.70;99.90;;;;;;4947742;29;20469;-71
2021/11/01 11:13:37;;;;;;;2.60;1.40;;;14.60;99.90;;;;;;4950793;29;20476;-73
2021/11/01 11:16:08;;;;;;;1.43;1.00;;;14.60;99.90;;;;;;4950080;23;20522;-71
2021/11/01 11:18:55;;;;;;;4.20;1.57;;;14.60;99.90;;;;;;4929741;29;20498;-72
2021/11/01 11:21:48;;;;;;;2.23;0.93;;;14.60;99.90;;;;;;4932143;29;20525;-71
2021/11/01 11:27:18;;;;;;;1.17;1.00;;;14.60;99.90;;;;;;4927190;29;20473;-71
2021/11/01 11:49:27;;;;;;;2.00;1.10;;;14.80;99.90;;;;;;4896902;29;20814;-71
2021/11/01 11:51:55;;;;;;;2.00;1.40;;;14.70;99.90;;;;;;4896336;29;20464;-72
2021/11/01 11:54:34;;;;;;;1.27;1.10;;;14.60;99.90;;;;;;4897178;29;20810;-72
2021/11/01 11:57:04;;;;;;;2.53;0.70;;;14.60;99.90;;;;;;4897414;29;20498;-73
2021/11/01 11:59:36;;;;;;;4.37;1.90;;;14.60;99.90;;;;;;4896470;29;20840;-72
2021/11/01 12:02:08;;;;;;;2.33;1.17;;;14.70;99.90;;;;;;4896882;29;20841;-71
2021/11/01 12:04:36;;;;;;;1.73;1.63;;;14.70;99.90;;;;;;4897644;29;20459;-73
2021/11/01 12:07:04;;;;;;;1.73;1.47;;;14.70;99.90;;;;;;4896604;29;20494;-72
2021/11/01 12:09:37;;;;;;;1.80;1.70;;;14.80;99.90;;;;;;4898331;29;20475;-72
2021/11/01 12:17:33;;;;;;;3.57;1.30;;;14.60;99.90;;;;;;4934154;29;20806;-72
2021/11/01 12:20:01;;;;;;;3.33;1.30;;;14.60;99.90;;;;;;4926129;29;20466;-72
2021/11/01 12:22:33;;;;;;;1.10;1.10;;;14.60;99.90;;;;;;4896454;29;21011;-69
2021/11/01 12:25:05;;;;;;;2.97;1.17;;;14.60;99.90;;;;;;4895864;29;20467;-71
2021/11/01 12:27:36;;;;;;;4.37;1.00;;;14.60;99.90;;;;;;4896051;29;21091;-71
2021/11/01 12:30:11;;;;;;;4.13;1.53;;;14.60;99.90;;;;;;4896371;29;20930;-70
2021/11/01 12:32:39;;;;;;;1.80;1.67;;;14.60;99.90;;;;;;4909587;29;20562;-71
2021/11/01 12:35:14;;;;;;;2.07;1.50;;;14.60;99.90;;;;;;4895687;29;20475;-69
2021/11/01 12:37:51;;;;;;;2.07;0.87;;;14.60;99.90;;;;;;4895536;29;20895;-71
2021/11/01 12:40:24;;;;;;;2.23;0.90;;;14.60;99.90;;;;;;4895860;29;21090;-71
2021/11/01 12:43:05;;;;;;;2.43;1.20;;;14.50;99.90;;;;;;4895545;29;20570;-71
2021/11/01 12:57:01;;;;;;;1.17;1.03;;;14.90;99.90;;;;;;4933453;29;20525;-71
2021/11/01 12:59:36;;;;;;;1.97;1.00;;;14.80;99.90;;;;;;4933231;29;20465;-72
2021/11/01 13:02:04;;;;;;;3.90;1.07;;;14.70;99.90;;;;;;4902427;29;20470;-72
2021/11/01 13:04:35;;;;;;;1.70;1.10;;;14.70;99.90;;;;;;4895131;29;20463;-71
2021/11/01 13:07:09;;;;;;;4.30;1.03;;;14.70;99.90;;;;;;4895126;29;20575;-71
2021/11/01 13:09:40;;;;;;;3.47;1.23;;;14.80;99.90;;;;;;4895430;29;20466;-71
2021/11/01 13:15:04;;;;;;;0.60;0.60;;;14.80;99.90;;;;;;4890335;29;20466;-71
2021/11/01 13:17:52;;;;;;;1.30;1.30;;;14.70;99.90;;;;;;4904930;29;20826;-70
2021/11/01 13:20:21;;;;;;;1.23;0.93;;;14.70;99.90;;;;;;4914039;29;20470;-70
2021/11/01 13:22:51;;;;;;;0.97;0.97;;;14.80;99.90;;;;;;4933275;29;20600;-71
2021/11/01 13:25:23;;;;;;;1.20;1.10;;;14.80;99.90;;;;;;4933590;29;20824;-72
2021/11/01 13:28:00;;;;;;;1.07;0.70;;;14.80;99.90;;;;;;4932918;29;20500;-70
2021/11/01 13:36:25;;;;;;;2.97;1.07;;;14.90;99.90;;;;;;4898180;29;20469;-70
2021/11/01 13:38:56;;;;;;;0.90;0.90;;;14.90;99.90;;;;;;4914052;29;20473;-71
2021/11/01 13:41:27;;;;;;;2.57;0.80;;;15.00;99.90;;;;;;4914624;29;20616;-70
2021/11/01 13:44:05;;;;;;;1.57;0.70;;;15.00;99.90;;;;;;4914315;29;20485;-71
2021/11/01 13:46:32;;;;;;;1.60;0.80;;;15.00;99.90;;;;;;4914150;29;20486;-70
2021/11/01 13:49:00;;;;;;;1.53;1.10;;;15.00;99.90;;;;;;4895339;29;20495;-71
2021/11/01 13:51:30;;;;;;;0.80;0.80;;;15.00;99.90;;;;;;4895302;29;20471;-71
2021/11/01 13:54:04;;;;;;;0.83;0.83;;;14.90;99.90;;;;;;4894780;29;20468;-71
2021/11/01 13:56:36;;;;;;;0.70;0.70;;;14.80;99.90;;;;;;4895436;29;20542;-71
2021/11/01 13:59:20;;;;;;;2.20;1.10;;;14.80;99.90;;;;;;4895396;29;20747;-70
2021/11/01 14:02:05;;;;;;;1.20;1.10;;;14.80;99.90;;;;;;4895695;29;20502;-70
2021/11/01 14:12:55;;;;;;;1.00;1.00;;;14.60;99.90;;;;;;4907319;29;20478;-71
2021/11/01 14:15:48;;;;;;;1.83;1.20;;;14.60;99.90;;;;;;4915295;29;20468;-71
2021/11/01 14:18:38;;;;;;;1.10;1.10;;;14.60;99.90;;;;;;4917057;29;20486;-71
2021/11/01 14:27:12;;;;;;;2.90;1.10;;;14.50;99.90;;;;;;4917693;29;20777;-70
2021/11/01 14:32:58;;;;;;;5.00;1.03;;;14.40;99.90;;;;;;4917087;29;20458;-71
2021/11/01 14:55:36;;;;;;;1.53;1.30;;;13.80;99.90;;;;;;4916919;29;20468;-71
2021/11/01 15:11:55;;;;;;;0.87;0.87;;;13.60;99.90;;;;;;4898791;29;20881;-71
2021/11/01 15:20:08;;;;;;;1.60;1.50;;;13.50;99.90;;;;;;4887966;29;21007;-71
2021/11/01 15:22:55;;;;;;;1.50;1.33;;;13.40;99.90;;;;;;4922447;29;20525;-72
2021/11/01 15:25:56;;;;;;;7.17;1.63;;;13.40;99.90;;;;;;4924343;29;20466;-72
2021/11/01 15:34:14;;;;;;;6.53;1.80;;;13.30;99.90;;;;;;4924305;29;20477;-71
2021/11/01 16:18:01;;;;;;;2.33;2.13;;;12.70;99.90;;;;;;4834044;29;20228;-73
2021/11/01 16:20:28;;;;;;;3.10;2.90;;;12.60;99.90;;;;;;4820173;29;20290;-71
2021/11/01 16:23:10;;;;;;;2.30;2.20;;;12.60;99.90;;;;;;4862077;29;20217;-72
2021/11/01 16:25:39;;;;;;;2.00;1.90;;;12.60;99.90;;;;;;4914941;29;20326;-71
2021/11/01 16:28:06;;;;;;;3.20;1.80;;;12.50;99.90;;;;;;4912095;29;20225;-71
2021/11/01 16:30:34;;;;;;;5.65;2.15;;;12.50;99.90;;;;;;4899708;29;20462;-71
2021/11/01 16:33:07;;;;;;;1.40;1.40;;;12.50;99.90;;;;;;4896297;29;20211;-71
2021/11/01 16:35:39;;;;;;;2.57;1.57;;;12.40;99.90;;;;;;4903578;29;20540;-71
2021/11/01 16:38:10;;;;;;;2.05;1.75;;;12.40;99.90;;;;;;4919035;29;20489;-71
2021/11/01 16:40:40;;;;;;;1.52;1.42;;;12.30;99.90;;;;;;4912211;29;20206;-71
2021/11/01 16:43:13;;;;;;;5.78;1.90;;;12.30;99.90;;;;;;4917464;29;20207;-72
2021/11/01 16:45:41;;;;;;;3.10;2.75;;;12.20;99.90;;;;;;4915214;29;20749;-72
2021/11/01 16:48:09;;;;;;;3.30;2.30;;;12.20;99.90;;;;;;4910561;29;20714;-71
2021/11/01 16:50:36;;;;;;;3.70;2.10;;;12.20;99.90;;;;;;4899691;29;20673;-72
2021/11/01 16:53:03;;;;;;;3.22;2.40;;;12.10;99.90;;;;;;4913199;29;20207;-71
2021/11/01 16:55:33;;;;;;;2.22;2.13;;;12.10;99.90;;;;;;4898043;29;20211;-72
2021/11/01 16:58:10;;;;;;;3.88;3.47;;;12.10;99.90;;;;;;4913523;29;20635;-70
2021/11/01 17:00:43;;;;;;;3.92;2.25;;;12.00;99.90;;;;;;4910207;29;20206;-71
2021/11/01 17:03:19;;;;;;;4.00;2.78;;;12.00;99.90;;;;;;4908002;29;20719;-71
2021/11/01 17:05:58;;;;;;;2.63;2.47;;;12.00;99.90;;;;;;4915295;29;20203;-71
2021/11/01 17:22:33;;;;;;;3.50;2.53;;;11.70;99.90;;;;;;4951674;29;20255;-72
2021/11/01 17:25:05;;;;;;;2.45;2.45;;;11.70;99.90;;;;;;4946490;29;20208;-72
2021/11/01 17:36:53;;;;;;;5.50;3.72;;;11.40;99.90;;;;;;4901908;29;20262;-72
2021/11/01 18:40:42;;;;;;;5.28;4.78;;;10.40;99.90;;;;;;4888911;29;20229;-73
2021/11/01 18:43:27;;;;;;;5.20;4.80;;;10.30;99.90;;;;;;4918623;29;20289;-73
2021/11/01 18:46:15;;;;;;;4.80;4.40;;;10.30;99.90;;;;;;4938267;29;20260;-73
2021/11/01 18:51:31;;;;;;;4.38;4.10;;;10.30;99.90;;;;;;4917751;29;20210;-72
2021/11/01 18:54:04;;;;;;;4.20;3.33;;;10.20;99.90;;;;;;4917738;29;20267;-73
2021/11/01 18:56:35;;;;;;;6.47;3.70;;;10.20;99.90;;;;;;4918639;29;20214;-73
2021/11/01 18:59:05;;;;;;;4.10;3.78;;;10.10;99.90;;;;;;4932747;29;20205;-72
2021/11/01 19:01:35;;;;;;;3.45;3.25;;;10.10;99.90;;;;;;4948562;28;20551;-73
2021/11/01 19:04:05;;;;;;;4.15;3.65;;;10.10;99.90;;;;;;4929707;29;20217;-72
2021/11/01 19:06:43;;;;;;;8.23;4.65;;;10.00;99.90;;;;;;4946835;29;20206;-73
2021/11/01 19:09:25;;;;;;;5.15;4.65;;;10.00;99.90;;;;;;4944105;29;20232;-73
2021/11/01 20:05:05;;;;;;;4.53;3.70;;;9.80;99.90;;;;;;4936096;29;20561;-72
2021/11/01 20:10:57;;;;;;;9.90;4.35;;;9.70;99.90;;;;;;4934661;29;20374;-72
2021/11/01 20:13:40;;;;;;;7.63;4.15;;;9.70;99.90;;;;;;4932490;29;20201;-72
2021/11/01 20:16:28;;;;;;;6.82;5.47;;;9.70;99.90;;;;;;4934617;29;20297;-72
2021/11/01 21:25:43;;;;;;;6.47;4.40;;;9.20;99.90;;;;;;4951569;28;20204;-72
2021/11/01 21:28:11;;;;;;;9.10;4.30;;;9.10;99.90;;;;;;4941639;28;20226;-72
2021/11/01 21:30:37;;;;;;;4.75;4.30;;;9.10;99.90;;;;;;4933421;29;20242;-73
2021/11/01 21:33:04;;;;;;;6.93;4.57;;;9.10;99.90;;;;;;4936409;29;20248;-71
2021/11/01 21:35:40;;;;;;;5.60;4.13;;;9.10;99.90;;;;;;4928624;29;20709;-72
2021/11/01 21:38:07;;;;;;;4.47;4.15;;;9.00;99.90;;;;;;4938934;29;20315;-71
2021/11/01 21:40:33;;;;;;;5.10;3.75;;;9.00;99.90;;;;;;4952939;29;20205;-71
2021/11/01 21:43:00;;;;;;;3.95;3.65;;;9.00;99.90;;;;;;4935115;29;20201;-73
2021/11/01 21:45:28;;;;;;;6.78;4.20;;;9.00;99.90;;;;;;4922441;29;20214;-72
2021/11/01 21:47:55;;;;;;;4.32;3.90;;;9.00;99.90;;;;;;4926898;29;20226;-72
2021/11/01 21:50:21;;;;;;;11.55;4.80;;;9.00;99.90;;;;;;4918597;29;20325;-72
2021/11/01 21:52:49;;;;;;;7.60;4.50;;;9.00;99.90;;;;;;4953454;29;20204;-73
2021/11/01 21:55:19;;;;;;;7.28;4.10;;;9.00;99.90;;;;;;4939126;29;20212;-72
2021/11/01 21:57:51;;;;;;;6.70;4.88;;;9.00;99.90;;;;;;4954471;29;20291;-72
